Time;durP1;ratioP1;P1;durP2;ratioP2;P2;SDS_P1;SDS_P2;PMS_P1;PMS_P2;Temp;Humidity;BMP_temperature;BMP_pressure;BME280_temperature;BME280_humidity;BME280_pressure;Samples;Min_cycle;Max_cycle;Signal;HPM_P1;HPM_P2
2022/08/28 00:01:08;;;;;;;22.60;5.07;;;15.60;99.90;;;;;;5089994;28;20035;-54
2022/08/28 00:03:34;;;;;;;13.25;4.72;;;15.60;99.90;;;;;;5090748;28;20040;-54
2022/08/28 00:06:00;;;;;;;16.17;4.60;;;15.60;99.90;;;;;;5090307;28;20027;-53
2022/08/28 00:08:26;;;;;;;16.90;5.25;;;15.60;99.90;;;;;;5090198;28;20028;-53
2022/08/28 00:10:51;;;;;;;22.90;5.65;;;15.60;99.90;;;;;;5089933;28;20449;-53
2022/08/28 00:13:20;;;;;;;12.30;4.32;;;15.50;99.90;;;;;;5090405;28;20024;-54
2022/08/28 00:15:48;;;;;;;16.83;4.38;;;15.50;99.90;;;;;;5090243;28;20433;-54
2022/08/28 00:18:13;;;;;;;11.80;4.38;;;15.50;99.90;;;;;;5089979;28;20409;-53
2022/08/28 00:20:39;;;;;;;14.23;4.90;;;15.40;99.90;;;;;;5089473;28;20027;-54
2022/08/28 00:23:05;;;;;;;19.25;4.70;;;15.40;99.90;;;;;;5086880;28;20028;-54
2022/08/28 00:25:33;;;;;;;14.65;4.95;;;15.40;99.90;;;;;;5078918;28;20375;-54
2022/08/28 00:28:02;;;;;;;16.70;5.57;;;15.30;99.90;;;;;;5090060;28;20107;-53
2022/08/28 00:30:35;;;;;;;18.73;4.82;;;15.30;99.90;;;;;;5089632;28;20028;-53
2022/08/28 00:33:10;;;;;;;18.77;5.63;;;15.30;99.90;;;;;;5090082;28;20391;-53
2022/08/28 00:35:35;;;;;;;21.08;6.05;;;15.30;99.90;;;;;;5090216;28;20085;-53
2022/08/28 00:38:01;;;;;;;19.25;5.22;;;15.30;99.90;;;;;;5089654;28;20032;-54
2022/08/28 00:40:29;;;;;;;16.55;5.72;;;15.20;99.90;;;;;;5089862;28;20123;-54
2022/08/28 00:42:55;;;;;;;26.13;6.15;;;15.20;99.90;;;;;;5087590;28;20441;-53
2022/08/28 00:45:22;;;;;;;16.48;5.93;;;15.20;99.90;;;;;;5089514;28;20073;-53
2022/08/28 00:47:48;;;;;;;15.43;5.72;;;15.20;99.90;;;;;;5089774;28;20032;-54
2022/08/28 00:50:17;;;;;;;16.80;5.50;;;15.20;99.90;;;;;;5089723;28;20442;-53
2022/08/28 00:52:50;;;;;;;20.10;5.53;;;15.10;99.90;;;;;;5087589;28;20526;-55
2022/08/28 00:55:19;;;;;;;16.00;5.93;;;15.00;99.90;;;;;;5079513;28;20024;-54
2022/08/28 00:57:52;;;;;;;16.05;4.85;;;15.10;99.90;;;;;;5089550;28;20024;-53
2022/08/28 01:00:44;;;;;;;21.30;5.85;;;15.00;99.90;;;;;;5089639;28;20023;-54
2022/08/28 01:03:10;;;;;;;16.67;5.15;;;15.10;99.90;;;;;;5087526;28;20384;-54
2022/08/28 01:05:36;;;;;;;22.58;5.45;;;15.00;99.90;;;;;;5089484;28;20028;-53
2022/08/28 01:08:03;;;;;;;18.00;4.80;;;14.90;99.90;;;;;;5089209;28;20039;-53
2022/08/28 01:10:31;;;;;;;12.63;5.28;;;14.90;99.90;;;;;;5087876;28;20372;-54
2022/08/28 01:12:57;;;;;;;21.42;5.82;;;14.90;99.90;;;;;;5089326;28;20020;-54
2022/08/28 01:15:27;;;;;;;20.83;5.57;;;14.90;99.90;;;;;;5088207;28;20024;-55
2022/08/28 01:18:04;;;;;;;20.85;5.47;;;14.90;99.90;;;;;;5088933;28;20615;-54
2022/08/28 01:20:32;;;;;;;24.00;6.13;;;14.90;99.90;;;;;;5086507;28;20372;-54
2022/08/28 01:23:19;;;;;;;19.08;5.45;;;14.80;99.90;;;;;;5088003;28;20028;-53
2022/08/28 01:25:44;;;;;;;19.20;5.65;;;14.80;99.90;;;;;;5068712;28;20024;-53
2022/08/28 01:28:12;;;;;;;16.85;5.90;;;14.80;99.90;;;;;;5084412;28;20297;-53
2022/08/28 01:30:40;;;;;;;17.23;5.40;;;14.70;99.90;;;;;;5087861;28;20023;-53
2022/08/28 01:33:05;;;;;;;17.38;5.50;;;14.70;99.90;;;;;;5087744;28;20028;-53
2022/08/28 01:35:34;;;;;;;17.88;5.13;;;14.70;99.90;;;;;;5087867;28;20036;-56
2022/08/28 01:38:01;;;;;;;18.75;6.25;;;14.70;99.90;;;;;;5087903;28;20039;-53
2022/08/28 01:40:30;;;;;;;18.10;6.03;;;14.70;99.90;;;;;;5087613;28;20024;-54
2022/08/28 01:43:09;;;;;;;22.05;6.32;;;14.60;99.90;;;;;;5087163;28;20062;-55
2022/08/28 01:45:36;;;;;;;11.25;4.70;;;14.60;99.90;;;;;;5087831;28;20479;-55
2022/08/28 01:48:03;;;;;;;13.40;5.38;;;14.60;99.90;;;;;;5077522;28;20044;-54
2022/08/28 01:50:29;;;;;;;20.42;5.97;;;14.60;99.90;;;;;;5086536;28;20119;-53
2022/08/28 01:52:54;;;;;;;21.02;6.53;;;14.60;99.90;;;;;;5087310;28;20501;-53
2022/08/28 01:55:20;;;;;;;19.52;6.15;;;14.50;99.90;;;;;;5087074;28;20035;-54
2022/08/28 01:57:49;;;;;;;12.15;5.95;;;14.50;99.90;;;;;;5088018;28;20145;-54
2022/08/28 02:00:16;;;;;;;16.63;6.35;;;14.50;99.90;;;;;;5088047;28;20016;-54
2022/08/28 02:02:42;;;;;;;20.20;5.70;;;14.50;99.90;;;;;;5085695;28;20031;-53
2022/08/28 02:05:09;;;;;;;14.85;5.88;;;14.50;99.90;;;;;;5078787;28;20021;-54
2022/08/28 02:07:35;;;;;;;26.50;6.80;;;14.50;99.90;;;;;;5087509;28;20081;-53
2022/08/28 02:10:01;;;;;;;19.10;6.22;;;14.50;99.90;;;;;;5087552;28;20043;-53
2022/08/28 02:12:27;;;;;;;15.05;5.20;;;14.50;99.90;;;;;;5086726;28;20519;-53
2022/08/28 02:14:53;;;;;;;22.58;6.00;;;14.50;99.90;;;;;;5087717;28;20060;-54
2022/08/28 02:17:18;;;;;;;23.48;7.00;;;14.50;99.90;;;;;;5052269;28;1000932;-53
2022/08/28 02:19:44;;;;;;;25.23;6.72;;;14.50;99.90;;;;;;5079995;28;20012;-53
2022/08/28 02:22:12;;;;;;;23.65;5.57;;;14.40;99.90;;;;;;5079142;28;20035;-53
2022/08/28 02:24:37;;;;;;;21.77;6.43;;;14.40;99.90;;;;;;5081377;28;20052;-53
2022/08/28 02:27:03;;;;;;;23.58;6.35;;;14.40;99.90;;;;;;5079737;28;20055;-53
2022/08/28 02:29:29;;;;;;;21.05;6.60;;;14.40;99.90;;;;;;5088391;28;20036;-53
2022/08/28 02:31:54;;;;;;;24.77;6.40;;;14.40;99.90;;;;;;5087908;28;20411;-53
2022/08/28 02:34:20;;;;;;;19.92;5.88;;;14.40;99.90;;;;;;5088388;28;20024;-53
2022/08/28 02:36:46;;;;;;;20.05;6.85;;;14.40;99.90;;;;;;5088313;28;20453;-53
2022/08/28 02:39:11;;;;;;;18.17;5.85;;;14.40;99.90;;;;;;5088138;28;20501;-53
2022/08/28 02:41:37;;;;;;;24.92;6.30;;;14.40;99.90;;;;;;5087965;28;20211;-54
2022/08/28 02:44:03;;;;;;;25.52;7.03;;;14.30;99.90;;;;;;5088385;28;20226;-53
2022/08/28 02:46:29;;;;;;;26.05;6.03;;;14.30;99.90;;;;;;5085350;28;20758;-53
2022/08/28 02:48:55;;;;;;;20.55;7.50;;;14.30;99.90;;;;;;5067600;28;20426;-53
2022/08/28 02:51:21;;;;;;;24.45;7.57;;;14.20;99.90;;;;;;5066831;28;20013;-53
2022/08/28 02:53:46;;;;;;;18.80;6.10;;;14.20;99.90;;;;;;5066789;28;20020;-53
2022/08/28 02:56:12;;;;;;;26.55;6.47;;;14.20;99.90;;;;;;5067540;28;20059;-53
2022/08/28 02:58:38;;;;;;;22.63;6.43;;;14.20;99.90;;;;;;5066219;28;20416;-53
2022/08/28 03:01:05;;;;;;;17.63;6.40;;;14.20;99.90;;;;;;5066959;28;20360;-53
2022/08/28 03:03:32;;;;;;;14.38;6.32;;;14.20;99.90;;;;;;5067650;28;20028;-53
2022/08/28 03:05:58;;;;;;;18.00;6.07;;;14.20;99.90;;;;;;5064781;28;20025;-53
2022/08/28 03:08:24;;;;;;;19.88;5.88;;;14.20;99.90;;;;;;5070687;28;20017;-53
2022/08/28 03:10:50;;;;;;;20.40;6.07;;;14.10;99.90;;;;;;5069960;28;20070;-53
2022/08/28 03:13:16;;;;;;;15.98;6.97;;;14.10;99.90;;;;;;5070928;28;20210;-53
2022/08/28 03:15:43;;;;;;;14.38;6.53;;;14.10;99.90;;;;;;5071367;28;20122;-53
2022/08/28 03:18:09;;;;;;;17.80;6.28;;;14.10;99.90;;;;;;5070847;28;20035;-53
2022/08/28 03:20:34;;;;;;;20.60;6.95;;;14.10;99.90;;;;;;5070363;28;20032;-53
2022/08/28 03:25:44;;;;;;;19.98;6.00;;;14.00;99.90;;;;;;5067253;28;20293;-53
2022/08/28 03:28:10;;;;;;;20.40;6.07;;;14.10;99.90;;;;;;5070850;28;20542;-53
2022/08/28 03:30:36;;;;;;;23.10;5.80;;;14.00;99.90;;;;;;5070140;28;20144;-54
2022/08/28 03:33:02;;;;;;;21.25;6.43;;;14.00;99.90;;;;;;5069118;28;20021;-53
2022/08/28 03:35:27;;;;;;;27.40;7.75;;;14.00;99.90;;;;;;5070432;28;20016;-54
2022/08/28 03:37:53;;;;;;;25.25;7.10;;;14.00;99.90;;;;;;5070249;28;20033;-54
2022/08/28 03:40:19;;;;;;;27.58;6.35;;;14.00;99.90;;;;;;5070294;28;20024;-53
2022/08/28 03:42:44;;;;;;;20.90;6.20;;;14.00;99.90;;;;;;5067204;28;20032;-53
2022/08/28 03:45:11;;;;;;;20.88;7.53;;;14.00;99.90;;;;;;5070357;28;20102;-53
2022/08/28 03:47:38;;;;;;;19.30;6.38;;;14.00;99.90;;;;;;5073974;28;20498;-53
2022/08/28 03:50:05;;;;;;;24.38;7.63;;;14.00;99.90;;;;;;5072431;28;20024;-53
2022/08/28 03:52:31;;;;;;;15.70;6.82;;;14.00;99.90;;;;;;5068677;28;20074;-53
2022/08/28 03:54:56;;;;;;;19.75;6.38;;;14.00;99.90;;;;;;5076676;28;20020;-53
2022/08/28 03:57:22;;;;;;;19.77;6.00;;;13.90;99.90;;;;;;5082244;28;20016;-53
2022/08/28 03:59:50;;;;;;;24.10;7.15;;;13.90;99.90;;;;;;5090695;28;20096;-53
2022/08/28 04:02:19;;;;;;;18.17;6.18;;;13.90;99.90;;;;;;5090012;28;20062;-53
2022/08/28 04:04:48;;;;;;;16.00;6.15;;;13.90;99.90;;;;;;5090456;28;20020;-53
2022/08/28 04:07:15;;;;;;;21.02;5.95;;;13.90;99.90;;;;;;5090368;28;20024;-53
2022/08/28 04:09:40;;;;;;;14.07;5.78;;;13.90;99.90;;;;;;5090178;28;20032;-53
2022/08/28 04:12:07;;;;;;;26.10;6.88;;;13.80;99.90;;;;;;5089854;28;20115;-53
2022/08/28 04:14:33;;;;;;;17.90;6.45;;;13.80;99.90;;;;;;5090358;28;20020;-53
2022/08/28 04:16:59;;;;;;;25.00;8.25;;;13.80;99.90;;;;;;5090316;28;20390;-53
2022/08/28 04:19:24;;;;;;;16.40;6.38;;;13.80;99.90;;;;;;5089208;28;20028;-53
2022/08/28 04:21:50;;;;;;;20.80;6.80;;;13.80;99.90;;;;;;5089657;28;20035;-53
2022/08/28 04:24:16;;;;;;;22.25;6.05;;;13.80;99.90;;;;;;5085918;28;20032;-53
2022/08/28 04:26:41;;;;;;;25.40;7.00;;;13.80;99.90;;;;;;5081563;28;20027;-53
2022/08/28 04:29:07;;;;;;;15.80;5.82;;;13.70;99.90;;;;;;5090285;28;20016;-53
2022/08/28 04:31:33;;;;;;;22.92;6.85;;;13.80;99.90;;;;;;5089640;28;20028;-53
2022/08/28 04:34:00;;;;;;;21.48;7.07;;;13.80;99.90;;;;;;5089992;28;20501;-52
2022/08/28 04:36:26;;;;;;;21.00;7.88;;;13.70;99.90;;;;;;5090315;28;20051;-52
2022/08/28 04:38:51;;;;;;;20.25;6.40;;;13.70;99.90;;;;;;5081510;28;20067;-53
2022/08/28 04:41:16;;;;;;;23.67;6.90;;;13.70;99.90;;;;;;5080900;28;20016;-52
2022/08/28 04:43:43;;;;;;;25.38;8.00;;;13.70;99.90;;;;;;5089863;28;20494;-52
2022/08/28 04:46:13;;;;;;;20.20;7.70;;;13.70;99.90;;;;;;5088349;28;20119;-52
2022/08/28 04:48:40;;;;;;;19.75;6.53;;;13.70;99.90;;;;;;5089332;28;20107;-53
2022/08/28 04:51:08;;;;;;;25.98;7.75;;;13.70;99.90;;;;;;5089007;28;20044;-52
2022/08/28 04:53:36;;;;;;;19.58;6.93;;;13.70;99.90;;;;;;5089279;28;20081;-53
2022/08/28 04:56:03;;;;;;;20.77;6.80;;;13.60;99.90;;;;;;5089659;28;20025;-52
2022/08/28 04:58:29;;;;;;;21.20;7.15;;;13.70;99.90;;;;;;5089523;28;20030;-53
2022/08/28 05:00:55;;;;;;;17.05;6.80;;;13.60;99.90;;;;;;5088536;28;20024;-53
2022/08/28 05:03:22;;;;;;;21.90;7.18;;;13.70;99.90;;;;;;5089351;28;20063;-53
2022/08/28 05:05:50;;;;;;;17.33;6.57;;;13.70;99.90;;;;;;5088038;28;20032;-52
2022/08/28 05:08:18;;;;;;;17.88;6.30;;;13.70;99.90;;;;;;5080337;28;20025;-52
2022/08/28 05:10:45;;;;;;;32.03;6.85;;;13.70;99.90;;;;;;5080085;28;20475;-52
2022/08/28 05:13:11;;;;;;;20.13;6.38;;;13.70;99.90;;;;;;5089287;28;20034;-53
2022/08/28 05:15:43;;;;;;;19.73;6.97;;;13.70;99.90;;;;;;5088792;28;20044;-53
2022/08/28 05:18:09;;;;;;;23.40;6.65;;;13.70;99.90;;;;;;5089147;28;20043;-53
2022/08/28 05:20:37;;;;;;;22.85;6.00;;;13.80;99.90;;;;;;5087376;28;20403;-52
2022/08/28 05:23:04;;;;;;;27.27;8.38;;;13.80;99.90;;;;;;5089039;28;20123;-53
2022/08/28 05:25:36;;;;;;;20.90;6.70;;;13.90;99.90;;;;;;5084959;28;20173;-52
2022/08/28 05:28:03;;;;;;;27.67;6.82;;;13.80;99.90;;;;;;5084599;28;20021;-52
2022/08/28 05:30:28;;;;;;;22.30;6.03;;;13.90;99.90;;;;;;5088556;28;20119;-53
2022/08/28 05:32:54;;;;;;;14.45;6.53;;;13.90;99.90;;;;;;5088752;28;20103;-52
2022/08/28 05:35:19;;;;;;;17.42;6.00;;;13.90;99.90;;;;;;5089203;28;20031;-52
2022/08/28 05:37:45;;;;;;;23.15;7.32;;;14.00;99.90;;;;;;5079563;28;20024;-52
2022/08/28 05:40:11;;;;;;;17.23;6.30;;;14.00;99.90;;;;;;5079464;28;20408;-52
2022/08/28 05:42:37;;;;;;;27.88;6.90;;;14.00;99.90;;;;;;5078737;28;20503;-52
2022/08/28 05:45:03;;;;;;;24.83;7.28;;;14.00;99.90;;;;;;5070917;28;20112;-52
2022/08/28 05:47:31;;;;;;;17.95;6.95;;;14.00;99.90;;;;;;5067954;28;20036;-52
2022/08/28 05:49:57;;;;;;;22.73;6.82;;;14.10;99.90;;;;;;5070595;28;20101;-52
2022/08/28 05:52:23;;;;;;;27.98;7.45;;;14.10;99.90;;;;;;5064675;28;20070;-52
2022/08/28 05:54:49;;;;;;;25.20;7.00;;;14.10;99.90;;;;;;5068666;28;20123;-53
2022/08/28 05:57:14;;;;;;;20.77;6.78;;;14.20;99.90;;;;;;5069783;28;20119;-53
2022/08/28 05:59:40;;;;;;;29.25;7.10;;;14.20;99.90;;;;;;5073518;28;20401;-52
2022/08/28 06:02:05;;;;;;;19.15;6.50;;;14.30;99.90;;;;;;5067901;28;20029;-53
2022/08/28 06:04:31;;;;;;;21.80;6.80;;;14.30;99.90;;;;;;5067453;28;20465;-53
2022/08/28 06:06:57;;;;;;;14.27;6.00;;;14.40;99.90;;;;;;5068454;28;20028;-53
2022/08/28 06:09:25;;;;;;;24.40;7.35;;;14.40;99.90;;;;;;5068377;28;20023;-53
2022/08/28 06:11:53;;;;;;;14.38;5.90;;;14.50;99.90;;;;;;5067320;28;20582;-53
2022/08/28 06:14:19;;;;;;;15.80;5.30;;;14.60;99.90;;;;;;5068242;28;20032;-53
2022/08/28 06:16:51;;;;;;;24.00;6.00;;;14.60;99.90;;;;;;5068319;28;20029;-52
2022/08/28 06:19:18;;;;;;;20.40;6.30;;;14.70;99.90;;;;;;5068501;28;20036;-54
2022/08/28 06:21:45;;;;;;;25.48;6.85;;;14.80;99.90;;;;;;5066205;28;20028;-54
2022/08/28 06:24:12;;;;;;;19.70;5.95;;;14.80;99.90;;;;;;5066832;28;20021;-54
2022/08/28 06:26:39;;;;;;;21.30;5.90;;;14.80;99.90;;;;;;5069247;28;20017;-54
2022/08/28 06:29:08;;;;;;;20.77;6.35;;;14.90;99.90;;;;;;5084178;28;20016;-54
2022/08/28 06:31:33;;;;;;;27.00;5.90;;;15.00;99.90;;;;;;5087606;28;20020;-55
2022/08/28 06:34:00;;;;;;;14.50;5.07;;;15.00;99.90;;;;;;5088227;28;20233;-54
2022/08/28 06:36:28;;;;;;;26.52;6.47;;;15.10;99.90;;;;;;5088241;28;20052;-55
2022/08/28 06:38:57;;;;;;;29.13;5.53;;;15.10;99.90;;;;;;5088234;28;20027;-54
2022/08/28 06:41:23;;;;;;;18.02;6.32;;;15.20;99.90;;;;;;5087630;28;20024;-54
2022/08/28 06:43:49;;;;;;;16.13;5.18;;;15.30;99.90;;;;;;5091993;28;20020;-54
2022/08/28 06:46:16;;;;;;;18.67;6.20;;;15.30;99.90;;;;;;5091867;28;20269;-54
2022/08/28 06:48:41;;;;;;;19.30;5.80;;;15.30;99.90;;;;;;5092138;28;20028;-53
2022/08/28 06:51:09;;;;;;;15.63;5.05;;;15.40;99.90;;;;;;5085841;28;20069;-53
2022/08/28 06:53:35;;;;;;;17.35;5.53;;;15.40;99.90;;;;;;5083350;28;20055;-54
2022/08/28 06:56:17;;;;;;;22.55;6.00;;;15.50;99.90;;;;;;5088369;28;20302;-54
2022/08/28 06:58:45;;;;;;;22.15;5.72;;;15.60;99.90;;;;;;5072361;28;20017;-54
2022/08/28 07:01:23;;;;;;;16.95;5.70;;;15.70;99.90;;;;;;5070896;28;20158;-54
2022/08/28 07:03:54;;;;;;;17.13;4.93;;;15.70;99.90;;;;;;5075866;28;20020;-54
2022/08/28 07:06:21;;;;;;;17.85;5.40;;;15.90;99.90;;;;;;5083151;28;20111;-53
2022/08/28 07:08:48;;;;;;;17.08;5.05;;;16.00;99.90;;;;;;5091436;28;20024;-52
2022/08/28 07:11:23;;;;;;;19.85;5.88;;;16.00;99.90;;;;;;5079540;28;20017;-54
2022/08/28 07:13:51;;;;;;;16.98;5.90;;;16.20;99.90;;;;;;5091893;28;20023;-54
2022/08/28 07:16:17;;;;;;;12.05;4.65;;;16.30;99.90;;;;;;5090997;28;20057;-53
2022/08/28 07:18:44;;;;;;;19.08;4.47;;;16.40;99.90;;;;;;5091165;28;20495;-56
2022/08/28 07:21:10;;;;;;;17.55;4.82;;;16.40;99.90;;;;;;5090212;28;20058;-55
2022/08/28 07:23:37;;;;;;;18.23;4.63;;;16.50;99.90;;;;;;5091357;28;20070;-54
2022/08/28 07:26:05;;;;;;;24.77;5.55;;;16.60;99.90;;;;;;5081757;28;20541;-55
2022/08/28 07:28:31;;;;;;;15.90;4.97;;;16.80;99.90;;;;;;5079338;28;20091;-55
2022/08/28 07:31:04;;;;;;;13.32;4.90;;;16.90;99.90;;;;;;5070356;28;20021;-55
2022/08/28 07:33:30;;;;;;;11.20;4.20;;;17.00;99.90;;;;;;5070901;28;20024;-54
2022/08/28 07:35:56;;;;;;;12.98;4.55;;;17.20;99.90;;;;;;5070788;28;20035;-55
2022/08/28 07:38:22;;;;;;;16.58;4.15;;;17.30;99.90;;;;;;5070329;28;20025;-54
2022/08/28 07:40:48;;;;;;;16.00;4.30;;;17.60;99.90;;;;;;5070036;28;20029;-54
2022/08/28 07:46:05;;;;;;;15.20;4.05;;;18.60;99.90;;;;;;5070940;28;20080;-54
2022/08/28 07:48:34;;;;;;;15.45;4.88;;;18.90;99.90;;;;;;5068740;28;20510;-54
2022/08/28 07:51:01;;;;;;;13.15;4.20;;;19.30;99.90;;;;;;5069076;28;20135;-55
2022/08/28 07:53:26;;;;;;;18.20;4.45;;;19.60;99.90;;;;;;5070933;28;20028;-55
2022/08/28 07:55:52;;;;;;;11.63;3.50;;;19.70;99.90;;;;;;5071715;28;20091;-55
2022/08/28 07:58:19;;;;;;;12.13;3.80;;;19.90;99.90;;;;;;5067562;28;20074;-55
2022/08/28 08:00:45;;;;;;;13.30;4.68;;;20.40;99.90;;;;;;5075080;28;20024;-55
2022/08/28 08:03:11;;;;;;;8.60;3.78;;;20.50;99.90;;;;;;5069155;28;20361;-55
2022/08/28 08:05:36;;;;;;;11.88;3.95;;;20.10;99.90;;;;;;5069225;28;20029;-55
2022/08/28 08:08:02;;;;;;;10.32;3.65;;;19.70;99.90;;;;;;5068892;28;20020;-55
2022/08/28 08:10:27;;;;;;;17.77;4.10;;;19.50;99.90;;;;;;5068670;28;20059;-55
2022/08/28 08:12:53;;;;;;;9.32;3.97;;;19.70;99.90;;;;;;5068497;28;20029;-53
2022/08/28 08:15:19;;;;;;;12.85;4.07;;;20.00;99.90;;;;;;5068548;28;20048;-54
2022/08/28 08:17:44;;;;;;;13.40;4.03;;;20.40;99.90;;;;;;5068925;28;20259;-54
2022/08/28 08:20:10;;;;;;;10.80;3.92;;;20.60;99.90;;;;;;5068801;28;20021;-54
2022/08/28 08:22:36;;;;;;;12.93;3.60;;;20.60;99.90;;;;;;5068199;28;20441;-54
2022/08/28 08:25:03;;;;;;;10.57;3.75;;;21.10;99.90;;;;;;5067868;28;20023;-54
2022/08/28 08:27:30;;;;;;;9.55;3.85;;;21.30;99.90;;;;;;5075865;28;20024;-54
2022/08/28 08:29:56;;;;;;;11.20;3.40;;;21.30;99.90;;;;;;5068764;28;20121;-54
2022/08/28 08:32:21;;;;;;;9.73;3.63;;;21.30;99.40;;;;;;5067760;28;20099;-54
2022/08/28 08:34:48;;;;;;;15.57;4.32;;;21.30;99.00;;;;;;5071621;28;20526;-54
2022/08/28 08:37:14;;;;;;;15.40;4.18;;;21.50;99.50;;;;;;5070886;28;20328;-54
2022/08/28 08:39:41;;;;;;;7.97;3.28;;;22.00;98.50;;;;;;5068300;28;20031;-55
2022/08/28 08:42:24;;;;;;;12.70;3.92;;;23.20;97.60;;;;;;5067712;28;20028;-54
2022/08/28 08:44:52;;;;;;;9.80;3.20;;;23.70;95.60;;;;;;5067448;28;20029;-54
2022/08/28 08:47:50;;;;;;;9.68;3.42;;;23.30;94.20;;;;;;5068130;28;20029;-55
2022/08/28 08:50:28;;;;;;;13.25;4.15;;;22.90;95.30;;;;;;5065215;28;20023;-54
2022/08/28 08:53:24;;;;;;;15.10;4.07;;;22.20;95.30;;;;;;5067730;28;20035;-55
2022/08/28 08:55:53;;;;;;;12.32;3.47;;;21.70;96.00;;;;;;5067226;28;20356;-55
2022/08/28 08:58:31;;;;;;;9.57;3.33;;;21.10;97.10;;;;;;5066012;28;20051;-55
2022/08/28 09:01:32;;;;;;;15.75;3.22;;;20.70;97.20;;;;;;5065358;28;20040;-54
2022/08/28 09:04:33;;;;;;;10.88;3.80;;;21.00;96.80;;;;;;5071171;28;20102;-54
2022/08/28 09:07:21;;;;;;;;;;;22.70;96.00;;;;;;5079323;28;20020;-54
2022/08/28 09:09:51;;;;;;;16.40;3.53;;;24.10;92.90;;;;;;5083286;28;19904;-54
2022/08/28 09:12:24;;;;;;;5.97;2.50;;;24.70;91.90;;;;;;5088582;28;20023;-55
2022/08/28 09:15:03;;;;;;;7.97;3.35;;;24.50;91.20;;;;;;5087951;28;20294;-55
2022/08/28 09:17:34;;;;;;;11.13;3.42;;;25.20;90.40;;;;;;5087551;28;20024;-54
2022/08/28 09:20:00;;;;;;;8.48;3.15;;;25.20;89.80;;;;;;5089127;28;20032;-55
2022/08/28 09:22:25;;;;;;;12.20;3.38;;;25.70;88.60;;;;;;5080399;28;20111;-55
2022/08/28 09:24:51;;;;;;;10.50;4.00;;;25.20;88.50;;;;;;5069268;28;20036;-55
2022/08/28 09:27:26;;;;;;;9.38;3.53;;;25.70;87.50;;;;;;5076519;28;20021;-55
2022/08/28 09:29:59;;;;;;;11.48;3.33;;;25.90;85.50;;;;;;5088980;28;20017;-55
2022/08/28 09:32:37;;;;;;;8.65;3.40;;;25.60;85.40;;;;;;5088173;28;20051;-55
2022/08/28 09:35:14;;;;;;;12.25;3.08;;;25.90;83.80;;;;;;5088802;28;20296;-55
2022/08/28 09:37:41;;;;;;;13.82;3.70;;;26.40;84.70;;;;;;5089040;28;20024;-55
2022/08/28 09:40:23;;;;;;;11.35;3.30;;;25.40;81.30;;;;;;5087608;28;20475;-54
2022/08/28 09:43:26;;;;;;;12.45;3.70;;;25.70;82.20;;;;;;5086877;28;20032;-54
2022/08/28 09:46:15;;;;;;;10.98;4.05;;;25.60;81.40;;;;;;5084958;28;20034;-55
2022/08/28 09:48:42;;;;;;;11.98;3.25;;;26.00;80.50;;;;;;5084903;28;20487;-54
2022/08/28 09:51:09;;;;;;;9.23;3.00;;;26.50;79.20;;;;;;5074482;28;20134;-54
2022/08/28 09:53:55;;;;;;;12.32;3.33;;;27.20;79.20;;;;;;5087593;28;20043;-55
2022/08/28 09:56:28;;;;;;;10.05;3.30;;;27.60;77.30;;;;;;5088931;28;20172;-54
2022/08/28 09:59:00;;;;;;;11.77;3.05;;;28.80;73.10;;;;;;5088476;28;20494;-54
2022/08/28 10:01:41;;;;;;;8.98;3.22;;;29.20;71.70;;;;;;5088194;28;20024;-54
2022/08/28 10:04:28;;;;;;;7.65;3.20;;;29.70;68.90;;;;;;5088855;28;20020;-56
2022/08/28 10:07:08;;;;;;;6.53;2.97;;;30.60;67.50;;;;;;5089161;28;20020;-56
2022/08/28 10:09:34;;;;;;;8.02;3.10;;;29.90;66.70;;;;;;5088565;28;20032;-56
2022/08/28 10:12:10;;;;;;;10.07;3.55;;;28.90;67.70;;;;;;5087792;28;20028;-56
2022/08/28 10:14:56;;;;;;;12.95;6.90;;;29.10;67.50;;;;;;5087895;28;20020;-56
2022/08/28 10:17:44;;;;;;;8.10;3.30;;;29.70;66.90;;;;;;5090597;28;20028;-54
2022/08/28 10:20:37;;;;;;;7.70;3.38;;;30.60;65.60;;;;;;5081477;28;20118;-57
2022/08/28 10:23:12;;;;;;;8.07;3.13;;;31.70;62.20;;;;;;5073873;28;20032;-57
2022/08/28 10:25:48;;;;;;;6.53;2.80;;;31.80;61.30;;;;;;5068058;28;20031;-57
2022/08/28 10:28:25;;;;;;;10.05;3.25;;;31.70;61.80;;;;;;5077801;28;20028;-57
2022/08/28 10:31:09;;;;;;;7.20;3.05;;;31.20;62.90;;;;;;5085200;28;20035;-56
2022/08/28 10:33:47;;;;;;;7.80;3.15;;;32.00;61.40;;;;;;5069333;28;20020;-56
2022/08/28 10:36:20;;;;;;;6.70;2.70;;;31.10;59.10;;;;;;5072507;28;20020;-56
2022/08/28 10:39:11;;;;;;;5.05;2.60;;;31.80;58.30;;;;;;5071917;28;20017;-57
2022/08/28 10:41:51;;;;;;;8.18;2.92;;;31.90;59.30;;;;;;5071024;28;20020;-56
2022/08/28 10:44:19;;;;;;;;;;;32.10;58.80;;;;;;5072306;28;20028;-57
2022/08/28 10:46:55;;;;;;;6.22;2.90;;;32.70;58.30;;;;;;5071780;28;19934;-57
2022/08/28 10:49:36;;;;;;;7.13;2.85;;;33.00;57.40;;;;;;5071582;28;20040;-57
2022/08/28 10:52:14;;;;;;;7.85;2.80;;;33.10;57.90;;;;;;5071313;28;20221;-56
2022/08/28 10:54:51;;;;;;;6.65;2.65;;;33.10;57.60;;;;;;5071459;28;20035;-57
2022/08/28 10:57:34;;;;;;;9.68;2.97;;;33.30;57.30;;;;;;5072013;28;20024;-57
2022/08/28 11:00:10;;;;;;;6.03;3.47;;;33.40;53.00;;;;;;5080974;28;20382;-57
2022/08/28 11:02:40;;;;;;;7.88;3.05;;;33.60;54.00;;;;;;5070873;28;20028;-57
2022/08/28 11:05:06;;;;;;;12.55;3.47;;;32.80;54.50;;;;;;5071390;28;20029;-57
2022/08/28 11:07:40;;;;;;;9.93;3.58;;;32.10;56.10;;;;;;5071257;28;20035;-57
2022/08/28 11:10:17;;;;;;;8.85;2.83;;;32.20;55.80;;;;;;5071222;28;20032;-56
2022/08/28 11:12:43;;;;;;;13.30;6.90;;;32.40;56.40;;;;;;5070701;28;20025;-56
2022/08/28 11:15:43;;;;;;;12.25;3.58;;;32.90;55.80;;;;;;5071130;28;20025;-56
2022/08/28 11:18:15;;;;;;;8.38;2.67;;;31.20;55.80;;;;;;5048463;28;20086;-56
2022/08/28 11:20:53;;;;;;;6.25;2.78;;;31.40;54.80;;;;;;5070881;28;20024;-56
2022/08/28 11:23:40;;;;;;;6.93;3.58;;;31.40;56.00;;;;;;5071250;28;20021;-56
2022/08/28 11:26:11;;;;;;;6.70;3.08;;;31.50;57.60;;;;;;5071088;28;20620;-56
2022/08/28 11:28:46;;;;;;;7.38;3.15;;;31.40;55.80;;;;;;5070494;28;20480;-56
2022/08/28 11:31:14;;;;;;;6.22;3.22;;;31.60;55.80;;;;;;5072741;28;20016;-57
2022/08/28 11:33:49;;;;;;;10.65;3.47;;;31.60;55.50;;;;;;5083383;28;20035;-56
2022/08/28 11:36:18;;;;;;;6.35;3.33;;;31.60;56.80;;;;;;5091018;28;20025;-56
2022/08/28 11:38:43;;;;;;;7.38;2.67;;;31.10;57.20;;;;;;5091044;28;20028;-56
2022/08/28 11:41:13;;;;;;;5.10;3.03;;;30.50;57.50;;;;;;5090068;28;20548;-56
2022/08/28 11:43:42;;;;;;;4.53;2.80;;;30.40;58.90;;;;;;5091030;28;20103;-56
2022/08/28 11:46:30;;;;;;;9.50;2.97;;;31.00;57.30;;;;;;5091011;28;20023;-55
2022/08/28 11:48:58;;;;;;;5.72;2.85;;;31.50;55.30;;;;;;5090950;28;20032;-56
2022/08/28 11:51:50;;;;;;;6.80;2.80;;;31.70;56.60;;;;;;5090536;28;20032;-56
2022/08/28 11:54:50;;;;;;;8.82;3.38;;;31.80;55.00;;;;;;5076865;28;20384;-56
2022/08/28 11:57:43;;;;;;;5.38;2.50;;;32.10;53.40;;;;;;5050325;28;20033;-56
2022/08/28 12:00:20;;;;;;;9.38;5.43;;;32.00;54.50;;;;;;5064511;28;20021;-57
2022/08/28 12:03:14;;;;;;;7.28;3.30;;;32.10;54.60;;;;;;5070990;28;20032;-57
2022/08/28 12:05:49;;;;;;;7.03;2.45;;;31.80;55.20;;;;;;5068285;28;20052;-57
2022/08/28 12:08:42;;;;;;;6.45;3.35;;;32.40;54.10;;;;;;5068394;28;20028;-56
2022/08/28 12:11:08;;;;;;;6.07;2.97;;;32.10;54.10;;;;;;5066767;28;20012;-57
2022/08/28 12:13:51;;;;;;;9.43;3.40;;;31.30;54.00;;;;;;5068729;28;20418;-56
2022/08/28 12:16:17;;;;;;;12.13;4.45;;;30.90;55.70;;;;;;5070616;28;20082;-57
2022/08/28 12:18:48;;;;;;;5.55;2.78;;;30.50;58.50;;;;;;5069931;28;20028;-57
2022/08/28 12:21:19;;;;;;;7.13;3.10;;;29.60;55.00;;;;;;5069735;28;20036;-56
2022/08/28 12:23:56;;;;;;;11.55;3.28;;;29.40;57.50;;;;;;5070351;28;20021;-57
2022/08/28 12:26:26;;;;;;;6.20;3.33;;;28.80;58.90;;;;;;5065220;28;20019;-56
2022/08/28 12:28:54;;;;;;;;;;;28.60;59.90;;;;;;5082142;28;20129;-56
2022/08/28 12:34:40;;;;;;;7.30;2.60;;;28.30;60.10;;;;;;5090154;28;20520;-56
2022/08/28 12:37:24;;;;;;;6.20;2.78;;;28.50;60.50;;;;;;5089909;28;20026;-56
2022/08/28 12:39:51;;;;;;;8.00;2.75;;;28.20;60.10;;;;;;5089098;28;20051;-56
2022/08/28 12:42:21;;;;;;;7.13;2.92;;;28.00;59.60;;;;;;5088892;28;20047;-56
2022/08/28 12:44:47;;;;;;;6.57;2.97;;;28.10;61.60;;;;;;5070012;28;20029;-56
2022/08/28 12:47:19;;;;;;;7.28;3.13;;;28.00;59.40;;;;;;5052621;28;20492;-56
2022/08/28 12:49:45;;;;;;;10.23;3.53;;;28.00;62.70;;;;;;5048772;28;20551;-54
2022/08/28 12:52:23;;;;;;;8.60;3.08;;;27.90;63.50;;;;;;5064639;28;20104;-56
2022/08/28 12:54:50;;;;;;;5.20;2.83;;;28.00;61.30;;;;;;5069946;28;20113;-56
2022/08/28 12:57:19;;;;;;;7.60;2.83;;;27.90;60.70;;;;;;5080777;28;20030;-55
2022/08/28 12:59:46;;;;;;;11.45;2.80;;;28.10;62.60;;;;;;5081422;28;20093;-56
2022/08/28 13:02:30;;;;;;;7.30;2.72;;;27.80;59.00;;;;;;5088117;28;20032;-55
2022/08/28 13:05:07;;;;;;;8.88;3.22;;;27.50;59.30;;;;;;5088131;28;20119;-55